createdAt,value
2019-06-10T00:00:50.851Z,18.33
2019-06-10T00:01:51.405Z,18.26
2019-06-10T00:02:50.756Z,18.29
2019-06-10T00:03:51.759Z,18.31
2019-06-10T00:04:50.807Z,18.34
2019-06-10T00:05:51.737Z,18.26
2019-06-10T00:06:50.950Z,18.25
2019-06-10T00:07:51.604Z,18.19
2019-06-10T00:08:50.644Z,18.25
2019-06-10T00:09:51.171Z,18.18
2019-06-10T00:10:51.136Z,18.11
2019-06-10T00:11:51.518Z,18.15
2019-06-10T00:12:51.416Z,18.18
2019-06-10T00:13:50.736Z,18.20
2019-06-10T00:14:50.987Z,18.18
2019-06-10T00:15:51.583Z,18.16
2019-06-10T00:16:50.842Z,18.18
2019-06-10T00:17:59.172Z,18.11
2019-06-10T00:18:51.214Z,18.13
2019-06-10T00:19:51.156Z,18.04
2019-06-10T00:20:51.266Z,18.08
2019-06-10T00:21:50.971Z,18.05
2019-06-10T00:22:51.526Z,18.11
2019-06-10T00:23:51.861Z,18.11
2019-06-10T00:24:52.054Z,18.10
2019-06-10T00:25:51.636Z,18.10
2019-06-10T00:26:51.029Z,18.08
2019-06-10T00:27:51.158Z,18.10
2019-06-10T00:28:51.285Z,18.10
2019-06-10T00:29:51.302Z,18.15
2019-06-10T00:30:51.557Z,18.11
2019-06-10T00:31:50.800Z,18.11
2019-06-10T00:32:51.549Z,18.03
2019-06-10T00:33:51.934Z,18.13
2019-06-10T00:34:50.856Z,18.03
2019-06-10T00:35:51.478Z,17.98
2019-06-10T00:36:50.922Z,17.98
2019-06-10T00:37:51.232Z,17.97
2019-06-10T00:38:51.723Z,18.00
2019-06-10T00:39:51.223Z,17.97
2019-06-10T00:40:51.297Z,18.01
2019-06-10T00:41:52.175Z,17.92
2019-06-10T00:42:50.767Z,18.01
2019-06-10T00:43:51.666Z,18.00
2019-06-10T00:44:50.906Z,18.00
2019-06-10T00:45:51.343Z,18.00
2019-06-10T00:46:51.621Z,17.98
2019-06-10T00:47:52.072Z,18.01
2019-06-10T00:48:50.962Z,17.87
2019-06-10T00:49:51.452Z,17.83
2019-06-10T00:50:51.769Z,17.85
2019-06-10T00:51:50.968Z,17.87
2019-06-10T00:52:51.696Z,17.86
2019-06-10T00:53:51.378Z,17.79
2019-06-10T00:54:51.831Z,17.79
2019-06-10T00:55:51.626Z,17.86
2019-06-10T00:56:51.779Z,17.85
2019-06-10T00:57:50.938Z,17.82
2019-06-10T00:58:51.359Z,17.79
2019-06-10T00:59:50.765Z,17.85
2019-06-10T01:00:51.686Z,17.76
2019-06-10T01:01:50.943Z,17.74
2019-06-10T01:02:51.642Z,17.76
2019-06-10T01:03:50.892Z,17.76
2019-06-10T01:04:51.372Z,17.70
2019-06-10T01:05:50.885Z,17.72
2019-06-10T01:06:51.367Z,17.79
2019-06-10T01:07:50.790Z,17.67
2019-06-10T01:08:51.231Z,17.67
2019-06-10T01:09:51.728Z,17.71
2019-06-10T01:10:51.967Z,17.64
2019-06-10T01:11:51.677Z,17.67
2019-06-10T01:12:51.330Z,17.71
2019-06-10T01:13:50.802Z,17.60
2019-06-10T01:14:51.505Z,17.57
2019-06-10T01:15:51.112Z,17.63
2019-06-10T01:16:50.622Z,17.60
2019-06-10T01:17:51.105Z,17.64
2019-06-10T01:18:52.659Z,17.56
2019-06-10T01:19:50.904Z,17.60
2019-06-10T01:20:51.581Z,17.49
2019-06-10T01:21:51.133Z,17.51
2019-06-10T01:22:51.502Z,17.51
2019-06-10T01:23:50.993Z,17.49
2019-06-10T01:24:51.066Z,17.56
2019-06-10T01:25:51.083Z,17.49
2019-06-10T01:26:50.561Z,17.48
2019-06-10T01:27:51.377Z,17.49
2019-06-10T01:28:51.451Z,17.52
2019-06-10T01:29:51.076Z,17.49
2019-06-10T01:30:51.557Z,17.48
2019-06-10T01:31:51.292Z,17.51
2019-06-10T01:32:50.668Z,17.49
2019-06-10T01:33:51.176Z,17.45
2019-06-10T01:34:50.796Z,17.49
2019-06-10T01:35:51.312Z,17.49
2019-06-10T01:36:50.945Z,17.41
2019-06-10T01:37:49.198Z,17.44
2019-06-10T01:38:51.220Z,17.33
2019-06-10T01:39:51.397Z,17.44
2019-06-10T01:40:50.973Z,17.36
2019-06-10T01:41:51.220Z,17.31
2019-06-10T01:42:50.611Z,17.36
2019-06-10T01:43:51.295Z,17.29
2019-06-10T01:44:50.652Z,17.24
2019-06-10T01:45:51.128Z,17.30
2019-06-10T01:46:51.525Z,17.26
2019-06-10T01:47:51.129Z,17.33
2019-06-10T01:48:51.833Z,17.31
2019-06-10T01:49:51.534Z,17.34
2019-06-10T01:50:51.126Z,17.36
2019-06-10T01:51:51.315Z,17.29
2019-06-10T01:52:51.427Z,17.29
2019-06-10T01:53:51.327Z,17.34
2019-06-10T01:54:51.470Z,17.27
2019-06-10T01:55:49.012Z,17.24
2019-06-10T01:56:51.008Z,17.36
2019-06-10T01:57:48.984Z,17.34
2019-06-10T01:58:51.181Z,17.24
2019-06-10T01:59:50.867Z,17.24
2019-06-10T02:00:50.755Z,17.16
2019-06-10T02:01:48.939Z,17.29
2019-06-10T02:02:52.186Z,17.20
2019-06-10T02:03:48.959Z,17.30
2019-06-10T02:04:51.639Z,17.23
2019-06-10T02:05:51.476Z,17.24
2019-06-10T02:06:51.063Z,17.23
2019-06-10T02:07:48.934Z,17.19
2019-06-10T02:08:50.999Z,17.23
2019-06-10T02:09:48.898Z,17.22
2019-06-10T02:10:50.942Z,17.22
2019-06-10T02:11:51.274Z,17.26
2019-06-10T02:12:50.827Z,17.23
2019-06-10T02:13:48.849Z,17.30
2019-06-10T02:14:50.851Z,17.24
2019-06-10T02:15:51.345Z,17.16
2019-06-10T02:16:50.709Z,17.16
2019-06-10T02:17:50.879Z,17.11
2019-06-10T02:18:59.854Z,17.15
2019-06-10T02:19:50.911Z,17.14
2019-06-10T02:20:48.828Z,17.12
2019-06-10T02:21:50.938Z,17.19
2019-06-10T02:22:48.708Z,17.11
2019-06-10T02:23:48.758Z,17.12
2019-06-10T02:24:50.647Z,17.14
2019-06-10T02:25:48.678Z,17.11
2019-06-10T02:26:48.681Z,17.14
2019-06-10T02:27:50.671Z,17.11
2019-06-10T02:28:50.869Z,17.16
2019-06-10T02:29:50.604Z,17.14
2019-06-10T02:30:51.911Z,17.09
2019-06-10T02:31:52.217Z,17.12
2019-06-10T02:32:52.127Z,17.15
2019-06-10T02:33:52.068Z,17.14
2019-06-10T02:35:03.572Z,17.11
2019-06-10T02:35:49.582Z,17.12
2019-06-10T02:36:48.605Z,17.06
2019-06-10T02:37:48.545Z,17.06
2019-06-10T02:38:48.597Z,17.05
2019-06-10T02:39:48.525Z,17.12
2019-06-10T02:40:48.517Z,17.11
2019-06-10T02:41:48.509Z,17.08
2019-06-10T02:42:48.814Z,17.08
2019-06-10T02:43:48.481Z,17.09
2019-06-10T02:44:48.475Z,17.14
2019-06-10T02:45:48.469Z,17.08
2019-06-10T02:46:48.461Z,17.06
2019-06-10T02:47:48.448Z,17.06
2019-06-10T02:48:48.485Z,17.09
2019-06-10T02:49:59.016Z,17.12
2019-06-10T02:50:49.403Z,17.08
2019-06-10T02:51:48.435Z,17.09
2019-06-10T02:52:48.392Z,17.02
2019-06-10T02:53:48.374Z,17.06
2019-06-10T02:54:48.368Z,17.04
2019-06-10T02:55:48.357Z,17.02
2019-06-10T02:56:48.347Z,17.02
2019-06-10T02:57:48.336Z,16.94
2019-06-10T02:58:48.321Z,17.01
2019-06-10T02:59:48.315Z,16.97
2019-06-10T03:00:49.285Z,16.93
2019-06-10T03:01:48.294Z,16.91
2019-06-10T03:02:48.327Z,16.84
2019-06-10T03:03:49.669Z,16.94
2019-06-10T03:04:48.521Z,16.91
2019-06-10T03:05:48.295Z,16.96
2019-06-10T03:06:48.250Z,16.89
2019-06-10T03:07:48.231Z,16.89
2019-06-10T03:08:48.221Z,16.90
2019-06-10T03:09:48.208Z,16.93
2019-06-10T03:10:48.189Z,16.94
2019-06-10T03:11:48.292Z,16.94
2019-06-10T03:12:48.223Z,16.96
2019-06-10T03:13:48.161Z,16.91
2019-06-10T03:14:48.180Z,16.93
2019-06-10T03:15:48.136Z,16.96
2019-06-10T03:16:48.126Z,16.91
2019-06-10T03:17:48.148Z,17.01
2019-06-10T03:18:48.115Z,16.99
2019-06-10T03:19:50.632Z,16.93
2019-06-10T03:20:49.084Z,16.94
2019-06-10T03:21:48.083Z,16.99
2019-06-10T03:22:48.116Z,17.05
2019-06-10T03:23:48.053Z,17.05
2019-06-10T03:24:48.094Z,17.05
2019-06-10T03:25:48.062Z,17.01
2019-06-10T03:26:48.034Z,17.02
2019-06-10T03:27:48.015Z,16.97
2019-06-10T03:28:47.995Z,17.02
2019-06-10T03:29:47.987Z,17.04
2019-06-10T03:30:54.118Z,17.08
2019-06-10T03:31:49.124Z,17.08
2019-06-10T03:32:48.123Z,17.05
2019-06-10T03:33:48.203Z,17.01
2019-06-10T03:34:48.133Z,17.09
2019-06-10T03:35:47.922Z,17.01
2019-06-10T03:36:47.917Z,17.02
2019-06-10T03:37:47.897Z,17.05
2019-06-10T03:38:47.885Z,17.04
2019-06-10T03:39:47.902Z,17.14
2019-06-10T03:40:47.865Z,17.06
2019-06-10T03:41:47.858Z,17.08
2019-06-10T03:42:47.872Z,17.01
2019-06-10T03:43:47.830Z,17.05
2019-06-10T03:44:47.827Z,17.11
2019-06-10T03:45:47.843Z,17.14
2019-06-10T03:46:47.800Z,17.04
2019-06-10T03:47:47.810Z,17.04
2019-06-10T03:48:47.830Z,17.06
2019-06-10T03:49:52.604Z,17.04
2019-06-10T03:50:48.755Z,17.08
2019-06-10T03:51:47.746Z,17.04
2019-06-10T03:52:47.766Z,17.08
2019-06-10T03:53:47.732Z,17.14
2019-06-10T03:54:47.712Z,17.16
2019-06-10T03:55:47.803Z,17.14
2019-06-10T03:56:47.691Z,17.15
2019-06-10T03:57:47.684Z,17.15
2019-06-10T03:58:47.747Z,17.23
2019-06-10T03:59:47.660Z,17.15
2019-06-10T04:00:47.651Z,17.20
2019-06-10T04:01:47.697Z,17.23
2019-06-10T04:02:47.659Z,17.22
2019-06-10T04:03:47.630Z,17.22
2019-06-10T04:04:47.603Z,17.29
2019-06-10T04:05:47.599Z,17.23
2019-06-10T04:06:47.590Z,17.23
2019-06-10T04:07:47.595Z,17.23
2019-06-10T04:08:47.594Z,17.27
2019-06-10T04:09:47.555Z,17.29
2019-06-10T04:10:47.562Z,17.23
2019-06-10T04:11:47.535Z,17.26
2019-06-10T04:12:47.536Z,17.27
2019-06-10T04:13:47.613Z,17.27
2019-06-10T04:14:47.518Z,17.24
2019-06-10T04:15:47.503Z,17.26
2019-06-10T04:16:47.484Z,17.23
2019-06-10T04:17:47.489Z,17.27
2019-06-10T04:18:47.522Z,17.26
2019-06-10T04:19:47.485Z,17.27
2019-06-10T04:20:48.316Z,17.29
2019-06-10T04:21:47.433Z,17.24
2019-06-10T04:22:47.418Z,17.30
2019-06-10T04:23:47.417Z,17.27
2019-06-10T04:24:47.442Z,17.26
2019-06-10T04:25:47.411Z,17.23
2019-06-10T04:26:47.387Z,17.27
2019-06-10T04:27:47.409Z,17.19
2019-06-10T04:28:47.433Z,17.24
2019-06-10T04:29:47.368Z,17.27
2019-06-10T04:30:47.366Z,17.26
2019-06-10T04:31:47.314Z,17.24
2019-06-10T04:32:47.341Z,17.24
2019-06-10T04:33:47.309Z,17.27
2019-06-10T04:34:47.279Z,17.23
2019-06-10T04:35:47.272Z,17.31
2019-06-10T04:36:47.329Z,17.33
2019-06-10T04:37:47.258Z,17.24
2019-06-10T04:38:47.260Z,17.27
2019-06-10T04:39:47.269Z,17.22
2019-06-10T04:40:47.245Z,17.27
2019-06-10T04:41:47.212Z,17.31
2019-06-10T04:42:47.196Z,17.26
2019-06-10T04:43:47.227Z,17.23
2019-06-10T04:44:47.188Z,17.22
2019-06-10T04:45:47.165Z,17.24
2019-06-10T04:46:47.214Z,17.27
2019-06-10T04:47:47.148Z,17.26
2019-06-10T04:48:47.157Z,17.26
2019-06-10T04:49:47.121Z,17.27
2019-06-10T04:50:47.123Z,17.22
2019-06-10T04:51:47.112Z,17.26
2019-06-10T04:52:47.097Z,17.29
2019-06-10T04:53:47.094Z,17.23
2019-06-10T04:54:47.115Z,17.19
2019-06-10T04:55:47.064Z,17.27
2019-06-10T04:56:47.050Z,17.29
2019-06-10T04:57:47.042Z,17.29
2019-06-10T04:58:47.040Z,17.24
2019-06-10T04:59:47.047Z,17.22
2019-06-10T05:00:47.004Z,17.23
2019-06-10T05:01:47.083Z,17.24
2019-06-10T05:02:46.992Z,17.36
2019-06-10T05:03:46.974Z,17.24
2019-06-10T05:04:46.989Z,17.41
2019-06-10T05:05:46.950Z,17.34
2019-06-10T05:06:46.941Z,17.34
2019-06-10T05:07:46.960Z,17.31
2019-06-10T05:08:46.924Z,17.29
2019-06-10T05:09:46.922Z,17.33
2019-06-10T05:10:46.892Z,17.27
2019-06-10T05:11:46.886Z,17.42
2019-06-10T05:12:46.874Z,17.30
2019-06-10T05:13:46.907Z,17.30
2019-06-10T05:14:46.870Z,17.31
2019-06-10T05:15:46.852Z,17.34
2019-06-10T05:16:46.893Z,17.33
2019-06-10T05:17:46.828Z,17.38
2019-06-10T05:18:46.805Z,17.38
2019-06-10T05:19:46.951Z,17.54
2019-06-10T05:20:57.669Z,17.39
2019-06-10T05:21:47.800Z,17.49
2019-06-10T05:22:46.803Z,17.45
2019-06-10T05:23:46.790Z,17.51
2019-06-10T05:24:46.849Z,17.44
2019-06-10T05:25:46.764Z,17.54
2019-06-10T05:26:46.731Z,17.49
2019-06-10T05:27:46.711Z,17.51
2019-06-10T05:28:46.745Z,17.54
2019-06-10T05:29:46.757Z,17.52
2019-06-10T05:30:46.677Z,17.54
2019-06-10T05:31:46.667Z,17.56
2019-06-10T05:32:46.658Z,17.59
2019-06-10T05:33:46.650Z,17.57
2019-06-10T05:34:46.775Z,17.64
2019-06-10T05:35:46.624Z,17.70
2019-06-10T05:36:46.654Z,17.68
2019-06-10T05:37:46.625Z,17.64
2019-06-10T05:38:46.617Z,17.68
2019-06-10T05:39:46.637Z,17.72
2019-06-10T05:40:46.606Z,17.70
2019-06-10T05:41:49.972Z,17.72
2019-06-10T05:42:46.603Z,17.74
2019-06-10T05:43:46.548Z,17.70
2019-06-10T05:44:46.539Z,17.74
2019-06-10T05:45:46.523Z,17.82
2019-06-10T05:46:46.509Z,17.78
2019-06-10T05:47:46.497Z,17.82
2019-06-10T05:48:46.517Z,17.85
2019-06-10T05:49:46.804Z,17.86
2019-06-10T05:50:59.246Z,17.83
2019-06-10T05:51:47.455Z,17.92
2019-06-10T05:52:46.447Z,17.95
2019-06-10T05:53:46.569Z,18.04
2019-06-10T05:54:46.807Z,18.00
2019-06-10T05:55:46.406Z,18.08
2019-06-10T05:56:46.479Z,18.01
2019-06-10T05:57:46.393Z,18.11
2019-06-10T05:58:46.378Z,18.11
2019-06-10T05:59:46.475Z,18.16
2019-06-10T06:00:46.452Z,18.10
2019-06-10T06:01:46.384Z,18.11
2019-06-10T06:02:46.333Z,18.13
2019-06-10T06:03:46.354Z,18.15
2019-06-10T06:04:46.360Z,18.19
2019-06-10T06:05:46.311Z,18.16
2019-06-10T06:06:46.316Z,18.16
2019-06-10T06:07:58.922Z,18.18
2019-06-10T06:08:47.275Z,18.18
2019-06-10T06:09:46.332Z,18.28
2019-06-10T06:10:46.254Z,18.19
2019-06-10T06:11:46.268Z,18.22
2019-06-10T06:12:46.227Z,18.15
2019-06-10T06:13:46.235Z,18.16
2019-06-10T06:14:46.293Z,18.19
2019-06-10T06:15:46.198Z,18.19
2019-06-10T06:16:46.282Z,18.20
2019-06-10T06:17:46.202Z,18.25
2019-06-10T06:18:46.177Z,18.28
2019-06-10T06:19:46.177Z,18.15
2019-06-10T06:20:46.172Z,18.18
2019-06-10T06:21:47.726Z,18.28
2019-06-10T06:22:46.159Z,18.29
2019-06-10T06:23:46.129Z,18.28
2019-06-10T06:24:46.117Z,18.25
2019-06-10T06:25:47.070Z,18.29
2019-06-10T06:26:46.084Z,18.28
2019-06-10T06:27:46.106Z,18.37
2019-06-10T06:28:46.062Z,18.25
2019-06-10T06:29:46.179Z,18.26
2019-06-10T06:30:46.051Z,18.33
2019-06-10T06:31:46.082Z,18.31
2019-06-10T06:32:46.018Z,18.29
2019-06-10T06:33:46.021Z,18.34
2019-06-10T06:34:46.023Z,18.26
2019-06-10T06:35:46.711Z,18.34
2019-06-10T06:36:45.981Z,18.40
2019-06-10T06:37:45.977Z,18.37
2019-06-10T06:38:45.966Z,18.29
2019-06-10T06:39:45.943Z,18.35
2019-06-10T06:40:46.038Z,18.35
2019-06-10T06:41:45.948Z,18.47
2019-06-10T06:42:45.961Z,18.45
2019-06-10T06:43:45.935Z,18.43
2019-06-10T06:44:46.043Z,18.47
2019-06-10T06:45:45.882Z,18.47
2019-06-10T06:46:45.919Z,18.53
2019-06-10T06:47:45.865Z,18.49
2019-06-10T06:48:45.853Z,18.49
2019-06-10T06:49:45.837Z,18.59
2019-06-10T06:51:00.242Z,18.62
2019-06-10T06:51:54.654Z,18.49
2019-06-10T06:53:18.981Z,18.55
2019-06-10T06:53:52.030Z,18.47
2019-06-10T06:54:46.813Z,18.59
2019-06-10T06:55:45.789Z,18.52
2019-06-10T06:56:45.765Z,18.53
2019-06-10T06:57:45.762Z,18.58
2019-06-10T06:58:45.759Z,18.63
2019-06-10T06:59:45.745Z,18.65
2019-06-10T07:01:00.658Z,18.60
2019-06-10T07:01:46.852Z,18.70
2019-06-10T07:02:45.716Z,18.71
2019-06-10T07:03:45.702Z,18.75
2019-06-10T07:04:45.690Z,18.71
2019-06-10T07:05:45.683Z,18.71
2019-06-10T07:06:45.676Z,18.77
2019-06-10T07:07:45.651Z,18.81
2019-06-10T07:09:00.559Z,18.81
2019-06-10T07:09:46.650Z,18.80
2019-06-10T07:10:45.657Z,18.83
2019-06-10T07:11:45.669Z,18.80
2019-06-10T07:12:45.604Z,18.81
2019-06-10T07:13:46.037Z,18.83
2019-06-10T07:14:45.574Z,18.80
2019-06-10T07:15:47.050Z,18.78
2019-06-10T07:16:46.545Z,18.77
2019-06-10T07:17:46.011Z,18.88
2019-06-10T07:18:50.119Z,18.86
2019-06-10T07:19:46.529Z,18.78
2019-06-10T07:20:45.997Z,18.78
2019-06-10T07:22:07.481Z,18.86
2019-06-10T07:22:46.834Z,18.78
2019-06-10T07:23:47.103Z,18.86
2019-06-10T07:24:47.514Z,18.83
2019-06-10T07:25:47.551Z,18.80
2019-06-10T07:26:52.134Z,18.83
2019-06-10T07:27:47.204Z,18.88
2019-06-10T07:28:47.414Z,18.77
2019-06-10T07:29:47.345Z,18.84
2019-06-10T07:30:51.061Z,18.84
2019-06-10T07:31:50.125Z,18.81
2019-06-10T07:32:47.401Z,18.83
2019-06-10T07:33:47.352Z,18.81
2019-06-10T07:34:47.029Z,18.81
2019-06-10T07:35:45.543Z,18.84
2019-06-10T07:36:45.578Z,18.83
2019-06-10T07:37:46.084Z,18.83
2019-06-10T07:38:48.811Z,18.83
2019-06-10T07:39:45.455Z,18.78
2019-06-10T07:40:45.925Z,18.74
2019-06-10T07:41:47.934Z,18.78
2019-06-10T07:42:45.516Z,18.78
2019-06-10T07:43:49.443Z,18.78
2019-06-10T07:44:45.406Z,18.74
2019-06-10T07:45:47.995Z,18.77
2019-06-10T07:46:45.670Z,18.77
2019-06-10T07:47:45.738Z,18.70
2019-06-10T07:48:47.674Z,18.77
2019-06-10T07:49:45.682Z,18.70
2019-06-10T07:50:45.813Z,18.74
2019-06-10T07:51:46.471Z,18.77
2019-06-10T07:52:46.790Z,18.75
2019-06-10T07:53:46.821Z,18.80
2019-06-10T07:54:45.382Z,18.65
2019-06-10T07:55:46.595Z,18.74
2019-06-10T07:56:50.422Z,18.77
2019-06-10T07:57:46.141Z,18.75
2019-06-10T07:58:47.686Z,18.73
2019-06-10T07:59:46.031Z,18.73
2019-06-10T08:00:48.088Z,18.73
2019-06-10T08:01:51.475Z,18.70
2019-06-10T08:02:46.277Z,18.66
2019-06-10T08:03:46.588Z,18.70
2019-06-10T08:04:46.054Z,18.66
2019-06-10T08:05:46.452Z,18.68
2019-06-10T08:06:45.845Z,18.68
2019-06-10T08:07:47.245Z,18.66
2019-06-10T08:08:45.510Z,18.65
2019-06-10T08:09:45.797Z,18.60
2019-06-10T08:10:46.304Z,18.66
2019-06-10T08:11:46.948Z,18.63
2019-06-10T08:12:47.001Z,18.58
2019-06-10T08:13:46.340Z,18.62
2019-06-10T08:14:45.761Z,18.56
2019-06-10T08:15:46.170Z,18.62
2019-06-10T08:16:46.645Z,18.63
2019-06-10T08:17:45.754Z,18.58
2019-06-10T08:19:13.940Z,18.53
2019-06-10T08:19:49.513Z,18.53
2019-06-10T08:20:45.871Z,18.56
2019-06-10T08:21:48.039Z,18.53
2019-06-10T08:22:54.036Z,18.44
2019-06-10T08:23:47.485Z,18.50
2019-06-10T08:24:45.410Z,18.56
2019-06-10T08:25:51.042Z,18.52
2019-06-10T08:26:45.814Z,18.52
2019-06-10T08:27:47.376Z,18.44
2019-06-10T08:28:46.612Z,18.53
2019-06-10T08:29:48.027Z,18.56
2019-06-10T08:30:46.005Z,18.53
2019-06-10T08:31:49.494Z,18.52
2019-06-10T08:32:46.822Z,18.47
2019-06-10T08:33:47.313Z,18.59
2019-06-10T08:34:46.662Z,18.49
2019-06-10T08:35:55.781Z,18.55
2019-06-10T08:36:49.056Z,18.53
2019-06-10T08:37:45.999Z,18.49
2019-06-10T08:38:46.813Z,18.56
2019-06-10T08:39:45.926Z,18.58
2019-06-10T08:40:46.716Z,18.63
2019-06-10T08:41:47.785Z,18.63
2019-06-10T08:42:47.486Z,18.65
2019-06-10T08:43:45.609Z,18.63
2019-06-10T08:44:47.253Z,18.63
2019-06-10T08:45:47.070Z,18.73
2019-06-10T08:46:46.820Z,18.63
2019-06-10T08:47:45.992Z,18.66
2019-06-10T08:48:47.769Z,18.71
2019-06-10T08:49:46.291Z,18.75
2019-06-10T08:50:48.267Z,18.78
2019-06-10T08:51:48.849Z,18.80
2019-06-10T08:53:04.008Z,18.83
2019-06-10T08:53:48.303Z,18.86
2019-06-10T08:54:47.952Z,18.92
2019-06-10T08:55:46.610Z,18.89
2019-06-10T08:56:47.610Z,18.86
2019-06-10T08:57:48.807Z,18.88
2019-06-10T08:58:48.933Z,18.99
2019-06-10T08:59:47.694Z,19.00
2019-06-10T09:00:47.523Z,19.04
2019-06-10T09:01:49.707Z,19.15
2019-06-10T09:02:48.582Z,19.16
2019-06-10T09:03:48.826Z,19.11
2019-06-10T09:04:48.480Z,19.26
2019-06-10T09:05:48.788Z,19.21
2019-06-10T09:06:47.957Z,19.18
2019-06-10T09:07:49.201Z,19.21
2019-06-10T09:08:48.003Z,19.30
2019-06-10T09:09:48.333Z,19.26
2019-06-10T09:10:49.100Z,19.30
2019-06-10T09:11:47.904Z,19.33
2019-06-10T09:12:47.760Z,19.29
2019-06-10T09:13:47.985Z,19.39
2019-06-10T09:14:46.765Z,19.40
2019-06-10T09:15:50.853Z,19.36
2019-06-10T09:16:48.608Z,19.41
2019-06-10T09:17:47.597Z,19.45
2019-06-10T09:18:47.693Z,19.41
2019-06-10T09:19:48.800Z,19.51
2019-06-10T09:20:47.517Z,19.55
2019-06-10T09:21:49.750Z,19.56
2019-06-10T09:22:48.560Z,19.58
2019-06-10T09:23:48.288Z,19.63
2019-06-10T09:24:49.057Z,19.63
2019-06-10T09:25:48.859Z,19.77
2019-06-10T09:26:49.552Z,19.79
2019-06-10T09:27:47.881Z,19.82
2019-06-10T09:28:46.230Z,19.77
2019-06-10T09:29:49.125Z,19.84
2019-06-10T09:30:50.991Z,19.85
2019-06-10T09:31:48.908Z,19.92
2019-06-10T09:32:49.371Z,19.95
2019-06-10T09:33:50.250Z,19.95
2019-06-10T09:34:51.625Z,20.11
2019-06-10T09:35:48.604Z,20.07
2019-06-10T09:36:49.095Z,20.06
2019-06-10T09:37:48.432Z,20.13
2019-06-10T09:38:47.335Z,20.13
2019-06-10T09:39:49.839Z,20.26
2019-06-10T09:40:48.662Z,20.22
2019-06-10T09:41:54.111Z,20.29
2019-06-10T09:42:48.114Z,20.22
2019-06-10T09:43:48.967Z,20.24
2019-06-10T09:44:48.413Z,20.32
2019-06-10T09:45:46.030Z,20.36
2019-06-10T09:46:46.998Z,20.41
2019-06-10T09:47:47.126Z,20.41
2019-06-10T09:48:48.584Z,20.47
2019-06-10T09:49:47.307Z,20.43
2019-06-10T09:50:48.758Z,20.50
2019-06-10T09:51:48.500Z,20.52
2019-06-10T09:52:48.585Z,20.59
2019-06-10T09:53:54.533Z,20.59
2019-06-10T09:54:48.745Z,20.67
2019-06-10T09:55:48.023Z,20.70
2019-06-10T09:56:47.241Z,20.66
2019-06-10T09:57:46.582Z,20.59
2019-06-10T09:58:46.047Z,20.65
2019-06-10T09:59:46.510Z,20.66
2019-06-10T10:00:48.850Z,20.65
2019-06-10T10:01:48.311Z,20.63
2019-06-10T10:02:47.760Z,20.66
2019-06-10T10:03:49.422Z,20.65
2019-06-10T10:04:48.830Z,20.72
2019-06-10T10:05:55.704Z,20.67
2019-06-10T10:06:48.045Z,20.65
2019-06-10T10:07:48.301Z,20.67
2019-06-10T10:08:49.033Z,20.67
2019-06-10T10:09:48.543Z,20.67
2019-06-10T10:10:49.466Z,20.65
2019-06-10T10:11:46.182Z,20.80
2019-06-10T10:12:46.052Z,20.74
2019-06-10T10:13:46.065Z,20.84
2019-06-10T10:14:46.081Z,20.84
2019-06-10T10:15:43.681Z,20.88
2019-06-10T10:16:48.519Z,20.77
2019-06-10T10:17:47.646Z,20.95
2019-06-10T10:18:48.301Z,20.96
2019-06-10T10:19:46.832Z,20.99
2019-06-10T10:20:46.825Z,21.05
2019-06-10T10:21:46.883Z,21.09
2019-06-10T10:22:46.068Z,21.15
2019-06-10T10:23:59.819Z,21.22
2019-06-10T10:24:45.858Z,21.24
2019-06-10T10:25:45.966Z,21.36
2019-06-10T10:26:47.135Z,21.29
2019-06-10T10:27:48.859Z,21.33
2019-06-10T10:28:46.196Z,21.48
2019-06-10T10:29:45.407Z,21.52
2019-06-10T10:30:45.999Z,21.45
2019-06-10T10:31:47.442Z,21.48
2019-06-10T10:32:47.098Z,21.51
2019-06-10T10:33:44.465Z,21.48
2019-06-10T10:34:45.261Z,21.51
2019-06-10T10:35:46.056Z,21.55
2019-06-10T10:36:45.430Z,21.69
2019-06-10T10:37:44.558Z,21.76
2019-06-10T10:38:44.775Z,21.77
2019-06-10T10:39:44.553Z,21.85
2019-06-10T10:40:45.643Z,21.75
2019-06-10T10:41:45.188Z,21.92
2019-06-10T10:42:48.598Z,21.93
2019-06-10T10:43:46.851Z,21.99
2019-06-10T10:44:46.142Z,22.06
2019-06-10T10:45:47.459Z,22.02
2019-06-10T10:46:45.558Z,22.14
2019-06-10T10:47:43.317Z,22.13
2019-06-10T10:48:43.312Z,22.07
2019-06-10T10:49:43.292Z,22.20
2019-06-10T10:50:44.200Z,22.15
2019-06-10T10:51:43.279Z,22.14
2019-06-10T10:52:45.059Z,22.18
2019-06-10T10:53:46.802Z,22.30
2019-06-10T10:54:45.095Z,22.26
2019-06-10T10:55:43.817Z,22.26
2019-06-10T10:56:45.596Z,22.38
2019-06-10T10:57:43.258Z,22.43
2019-06-10T10:58:45.561Z,22.44
2019-06-10T10:59:44.714Z,22.47
2019-06-10T11:00:45.458Z,22.41
2019-06-10T11:01:44.115Z,22.53
2019-06-10T11:02:44.520Z,22.53
2019-06-10T11:03:45.405Z,22.69
2019-06-10T11:04:44.285Z,22.69
2019-06-10T11:05:46.222Z,22.72
2019-06-10T11:06:44.571Z,22.75
2019-06-10T11:07:44.483Z,22.78
2019-06-10T11:08:45.338Z,22.85
2019-06-10T11:09:44.792Z,22.87
2019-06-10T11:10:45.625Z,22.96
2019-06-10T11:11:44.213Z,23.03
2019-06-10T11:12:43.049Z,23.13
2019-06-10T11:13:43.373Z,23.10
2019-06-10T11:14:43.023Z,23.23
2019-06-10T11:15:43.546Z,23.23
2019-06-10T11:16:43.265Z,23.23
2019-06-10T11:17:43.323Z,23.31
2019-06-10T11:18:42.997Z,23.24
2019-06-10T11:19:43.022Z,23.28
2019-06-10T11:20:42.965Z,23.27
2019-06-10T11:21:43.348Z,23.41
2019-06-10T11:22:43.411Z,23.36
2019-06-10T11:23:43.855Z,23.39
2019-06-10T11:24:44.927Z,23.41
2019-06-10T11:25:43.208Z,23.46
2019-06-10T11:26:43.327Z,23.51
2019-06-10T11:27:43.245Z,23.55
2019-06-10T11:28:43.313Z,23.56
2019-06-10T11:29:42.935Z,23.68
2019-06-10T11:30:42.951Z,23.74
2019-06-10T11:31:42.956Z,23.62
2019-06-10T11:32:43.336Z,23.65
2019-06-10T11:33:43.685Z,23.68
2019-06-10T11:34:43.015Z,23.73
2019-06-10T11:35:42.944Z,23.78
2019-06-10T11:36:42.826Z,23.76
2019-06-10T11:37:42.905Z,23.76
2019-06-10T11:38:42.790Z,23.78
2019-06-10T11:39:42.786Z,23.78
2019-06-10T11:40:43.005Z,23.86
2019-06-10T11:41:43.690Z,23.86
2019-06-10T11:42:43.641Z,23.88
2019-06-10T11:43:43.228Z,24.08
2019-06-10T11:44:42.769Z,24.14
2019-06-10T11:45:48.362Z,24.18
2019-06-10T11:46:43.719Z,24.23
2019-06-10T11:47:42.713Z,24.32
2019-06-10T11:48:43.588Z,24.40
2019-06-10T11:49:43.515Z,24.39
2019-06-10T11:50:42.961Z,24.43
2019-06-10T11:51:42.633Z,24.39
2019-06-10T11:52:43.321Z,24.39
2019-06-10T11:53:43.982Z,24.42
2019-06-10T11:54:55.849Z,24.45
2019-06-10T11:55:43.657Z,24.39
2019-06-10T11:56:42.600Z,24.45
2019-06-10T11:57:42.570Z,24.47
2019-06-10T11:58:43.585Z,24.54
2019-06-10T11:59:43.433Z,24.54
2019-06-10T12:00:42.721Z,24.57
2019-06-10T12:01:42.794Z,24.61
2019-06-10T12:02:42.636Z,24.63
2019-06-10T12:03:43.433Z,24.54
2019-06-10T12:04:42.511Z,24.57
2019-06-10T12:05:42.506Z,24.54
2019-06-10T12:06:42.768Z,24.60
2019-06-10T12:07:42.823Z,24.60
2019-06-10T12:08:43.615Z,24.60
2019-06-10T12:09:42.671Z,24.70
2019-06-10T12:10:43.429Z,24.77
2019-06-10T12:11:43.802Z,24.81
2019-06-10T12:12:43.392Z,24.81
2019-06-10T12:13:42.977Z,24.95
2019-06-10T12:14:43.152Z,24.89
2019-06-10T12:16:29.414Z,24.86
2019-06-10T12:17:51.095Z,24.93
2019-06-10T12:18:43.378Z,24.95
2019-06-10T12:19:43.367Z,24.89
2019-06-10T12:20:42.837Z,24.89
2019-06-10T12:21:43.398Z,24.89
2019-06-10T12:22:42.463Z,24.99
2019-06-10T12:23:43.574Z,25.04
2019-06-10T12:24:43.177Z,25.04
2019-06-10T12:25:43.653Z,24.99
2019-06-10T12:26:43.395Z,25.04
2019-06-10T12:27:43.323Z,24.96
2019-06-10T12:28:43.119Z,24.89
2019-06-10T12:29:42.402Z,24.92
2019-06-10T12:30:42.504Z,24.89
2019-06-10T12:31:42.946Z,24.89
2019-06-10T12:32:42.617Z,24.92
2019-06-10T12:33:42.312Z,24.96
2019-06-10T12:34:45.923Z,24.85
2019-06-10T12:35:42.356Z,24.93
2019-06-10T12:36:42.161Z,24.91
2019-06-10T12:37:42.664Z,24.89
2019-06-10T12:38:43.522Z,24.86
2019-06-10T12:39:42.406Z,24.88
2019-06-10T12:40:42.801Z,24.91
2019-06-10T12:41:42.969Z,24.81
2019-06-10T12:42:42.127Z,24.89
2019-06-10T12:43:43.222Z,24.89
2019-06-10T12:44:42.907Z,24.96
2019-06-10T12:45:43.260Z,25.03
2019-06-10T12:46:43.172Z,25.14
2019-06-10T12:47:42.520Z,25.04
2019-06-10T12:48:42.823Z,25.07
2019-06-10T12:49:42.767Z,25.10
2019-06-10T12:50:42.835Z,25.17
2019-06-10T12:51:42.022Z,25.21
2019-06-10T12:52:42.011Z,25.11
2019-06-10T12:53:43.275Z,25.16